Overview Statistics Trail Chart Weather Telemetry Raw packets
 

This is the latest recevied weather packets stored in our database for station/object KC0OOO-WX. If no packets are shown the sender has not sent any weather packets the latest 10 day(s).

<< 40 41 42 43 44 45 46 >>
Time Temp. Humidity Pressure Rain* Wind** Luminosity Snow
1777134201 12.78° C 26% 1014.9 hPa 0 mm - - -
1777133601 12.78° C 27% 1014.9 hPa 0 mm - - -
1777132971 12.22° C 28% 1014.9 hPa 0 mm - - -
1777132341 12.22° C 28% 1014.9 hPa 0 mm - - -
1777131741 12.22° C 29% 1014.9 hPa 0 mm - - -
1777131141 11.67° C 34% 1014.9 hPa 0 mm - - -
1777130541 11.11° C 35% 1015.2 hPa 0 mm - - -
1777129941 10.56° C 36% 1015.2 hPa 0 mm - - -
1777129341 10° C 36% 1015.2 hPa 0 mm - - -
1777128741 10° C 39% 1015.2 hPa 0 mm - - -
1777128112 9.44° C 40% 1015.2 hPa 0 mm - - -
1777127511 9.44° C 43% 1015.2 hPa 0 mm - - -
1777126911 8.89° C 44% 1015.2 hPa 0 mm - - -
1777126281 8.33° C 46% 1014.9 hPa 0 mm - - -
1777125681 7.78° C 46% 1014.9 hPa 0 mm - - -
1777125081 7.22° C 47% 1014.9 hPa 0 mm - - -
1777124481 6.11° C 52% 1014.9 hPa 0 mm - - -
1777123881 5° C 54% 1014.6 hPa 0 mm - - -
1777123281 4.44° C 54% 1014.6 hPa 0 mm - - -
1777122681 3.89° C 54% 1014.6 hPa 0 mm - - -
1777122081 4.44° C 52% 1014.6 hPa 0 mm - - -
1777121481 4.44° C 51% 1014.6 hPa 0 mm - - -
1777120881 5° C 50% 1014.6 hPa 0 mm - - -
1777120281 5.56° C 48% 1014.6 hPa 0 mm - - -
1777119651 5.56° C 45% 1014.6 hPa 0 mm - - -

* Rain latest hour (hover to see other rain measurements)
** Current wind speed in m/s (hover to see current wind gust speed)